createdAt,value
2019-06-20T00:00:33.655Z,2.80
2019-06-20T00:02:59.875Z,3.07
2019-06-20T00:05:26.229Z,3.43
2019-06-20T00:07:52.477Z,2.60
2019-06-20T00:10:18.736Z,2.73
2019-06-20T00:12:59.443Z,3.27
2019-06-20T00:15:13.420Z,3.27
2019-06-20T00:17:39.652Z,3.70
2019-06-20T00:20:05.904Z,3.03
2019-06-20T00:22:32.034Z,3.60
2019-06-20T00:24:58.163Z,2.90
2019-06-20T00:27:24.285Z,2.60
2019-06-20T00:29:50.515Z,2.47
2019-06-20T00:32:16.750Z,3.40
2019-06-20T00:34:42.880Z,3.10
2019-06-20T00:37:09.036Z,2.83
2019-06-20T00:39:35.414Z,2.97
2019-06-20T00:42:01.648Z,2.63
2019-06-20T00:44:28.963Z,3.20
2019-06-20T00:46:57.048Z,2.23
2019-06-20T00:49:24.641Z,3.10
2019-06-20T00:51:51.895Z,3.77
2019-06-20T00:54:18.111Z,2.87
2019-06-20T00:56:47.566Z,2.90
2019-06-20T00:59:18.509Z,3.43
2019-06-20T01:01:44.745Z,2.93
2019-06-20T01:04:11.001Z,3.53
2019-06-20T01:06:37.270Z,3.20
2019-06-20T01:09:06.456Z,3.70
2019-06-20T01:11:33.942Z,3.83
2019-06-20T01:14:00.097Z,4.00
2019-06-20T01:16:26.219Z,3.67
2019-06-20T01:18:52.442Z,3.43
2019-06-20T01:21:19.639Z,4.00
2019-06-20T01:23:45.852Z,3.80
2019-06-20T01:26:12.002Z,4.47
2019-06-20T01:28:39.704Z,4.30
2019-06-20T01:31:06.268Z,4.87
2019-06-20T01:33:35.521Z,4.00
2019-06-20T01:36:03.553Z,3.80
2019-06-20T01:38:29.781Z,3.57
2019-06-20T01:40:56.137Z,4.70
2019-06-20T01:43:22.418Z,4.30
2019-06-20T01:45:48.736Z,4.17
2019-06-20T01:48:16.233Z,3.67
2019-06-20T01:50:42.449Z,3.57
2019-06-20T01:53:10.000Z,4.17
2019-06-20T01:55:36.227Z,4.13
2019-06-20T01:58:03.012Z,3.70
2019-06-20T02:00:41.875Z,3.27
2019-06-20T02:03:08.253Z,4.10
2019-06-20T02:05:34.827Z,3.90
2019-06-20T02:08:01.082Z,3.90
2019-06-20T02:10:27.356Z,3.83
2019-06-20T02:12:54.782Z,3.63
2019-06-20T02:15:24.900Z,3.83
2019-06-20T02:17:51.035Z,4.10
2019-06-20T02:20:34.982Z,3.80
2019-06-20T02:23:01.179Z,3.57
2019-06-20T02:25:27.396Z,3.80
2019-06-20T02:27:53.559Z,3.50
2019-06-20T02:30:19.997Z,3.90
2019-06-20T02:32:46.246Z,3.83
2019-06-20T02:35:12.357Z,3.83
2019-06-20T02:37:38.497Z,3.33
2019-06-20T02:40:05.425Z,3.70
2019-06-20T02:42:31.998Z,3.73
2019-06-20T02:44:58.127Z,3.83
2019-06-20T02:47:24.372Z,3.50
2019-06-20T02:49:51.822Z,3.17
2019-06-20T02:52:19.679Z,3.73
2019-06-20T02:54:46.548Z,4.20
2019-06-20T02:57:12.842Z,3.77
2019-06-20T02:59:39.112Z,3.97
2019-06-20T03:02:07.879Z,3.30
2019-06-20T03:04:34.097Z,3.43
2019-06-20T03:07:00.679Z,3.43
2019-06-20T03:09:29.164Z,3.27
2019-06-20T03:11:58.533Z,3.57
2019-06-20T03:14:24.677Z,3.40
2019-06-20T03:16:50.793Z,3.40
2019-06-20T03:19:17.009Z,2.90
2019-06-20T03:21:43.228Z,2.90
2019-06-20T03:24:09.357Z,3.20
2019-06-20T03:26:35.513Z,2.80
2019-06-20T03:29:01.643Z,3.23
2019-06-20T03:31:28.272Z,2.80
2019-06-20T03:33:54.802Z,2.60
2019-06-20T03:36:21.027Z,2.87
2019-06-20T03:38:47.288Z,3.20
2019-06-20T03:41:15.249Z,2.57
2019-06-20T03:43:44.368Z,2.60
2019-06-20T03:46:10.990Z,3.17
2019-06-20T03:48:37.503Z,3.27
2019-06-20T03:51:05.003Z,2.90
2019-06-20T03:53:32.966Z,3.13
2019-06-20T03:55:59.083Z,2.70
2019-06-20T03:58:26.534Z,2.90
2019-06-20T04:00:56.589Z,3.03
2019-06-20T04:03:24.146Z,3.10
2019-06-20T04:05:53.444Z,3.30
2019-06-20T04:08:19.671Z,3.00
2019-06-20T04:10:45.906Z,3.20
2019-06-20T04:13:12.034Z,2.97
2019-06-20T04:15:38.171Z,2.70
2019-06-20T04:18:04.284Z,2.70
2019-06-20T04:20:30.516Z,3.03
2019-06-20T04:22:56.634Z,2.97
2019-06-20T04:25:22.943Z,2.97
2019-06-20T04:27:49.191Z,3.07
2019-06-20T04:30:16.227Z,2.87
2019-06-20T04:32:42.371Z,2.97
2019-06-20T04:35:08.593Z,2.83
2019-06-20T04:37:34.737Z,3.03
2019-06-20T04:40:00.967Z,3.20
2019-06-20T04:42:27.108Z,3.30
2019-06-20T04:44:55.502Z,3.70
2019-06-20T04:47:21.739Z,3.43
2019-06-20T04:49:47.967Z,2.97
2019-06-20T04:52:14.192Z,3.57
2019-06-20T04:54:40.331Z,4.10
2019-06-20T04:57:06.448Z,3.87
2019-06-20T04:59:34.533Z,4.00
2019-06-20T05:02:00.783Z,3.90
2019-06-20T05:04:26.882Z,3.90
2019-06-20T05:07:02.427Z,4.70
2019-06-20T05:09:28.645Z,4.60
2019-06-20T05:11:54.877Z,4.77
2019-06-20T05:14:21.115Z,4.80
2019-06-20T05:16:47.247Z,5.43
2019-06-20T05:19:13.472Z,5.00
2019-06-20T05:21:39.696Z,4.80
2019-06-20T05:24:05.825Z,5.20
2019-06-20T05:26:31.956Z,4.73
2019-06-20T05:28:58.195Z,4.70
2019-06-20T05:31:24.477Z,5.23
2019-06-20T05:33:50.643Z,5.37
2019-06-20T05:36:16.888Z,4.87
2019-06-20T05:38:43.131Z,4.87
2019-06-20T05:41:09.357Z,5.90
2019-06-20T05:43:35.592Z,7.67
2019-06-20T05:46:09.678Z,6.80
2019-06-20T05:48:29.972Z,7.93
2019-06-20T05:50:56.208Z,7.13
2019-06-20T05:53:22.442Z,10.23
2019-06-20T05:55:48.658Z,8.40
2019-06-20T05:58:15.495Z,8.13
2019-06-20T06:00:41.786Z,7.80
2019-06-20T06:03:07.984Z,9.03
2019-06-20T06:05:34.208Z,9.90
2019-06-20T06:08:00.454Z,7.10
2019-06-20T06:10:26.681Z,8.97
2019-06-20T06:12:52.902Z,8.53
2019-06-20T06:15:19.212Z,8.43
2019-06-20T06:17:45.441Z,8.90
2019-06-20T06:20:12.485Z,8.23
2019-06-20T06:22:39.258Z,8.23
2019-06-20T06:25:06.180Z,8.83
2019-06-20T06:27:32.403Z,9.27
2019-06-20T06:29:58.626Z,8.87
2019-06-20T06:32:39.230Z,8.10
2019-06-20T06:34:52.834Z,8.17
2019-06-20T06:37:18.972Z,7.50
2019-06-20T06:39:45.188Z,8.73
2019-06-20T06:42:11.425Z,8.53
2019-06-20T06:44:37.536Z,8.60
2019-06-20T06:47:03.758Z,8.37
2019-06-20T06:49:29.905Z,8.77
2019-06-20T06:51:56.145Z,8.03
2019-06-20T06:54:22.404Z,8.37
2019-06-20T06:56:48.775Z,8.73
2019-06-20T06:59:14.905Z,8.83
2019-06-20T07:01:41.052Z,9.23
2019-06-20T07:04:07.403Z,8.40
2019-06-20T07:06:33.668Z,8.07
2019-06-20T07:08:59.942Z,8.63
2019-06-20T07:11:26.098Z,8.20
2019-06-20T07:13:52.212Z,8.53
2019-06-20T07:16:18.367Z,9.27
2019-06-20T07:18:44.467Z,9.40
2019-06-20T07:21:10.718Z,8.67
2019-06-20T07:23:36.941Z,8.50
2019-06-20T07:26:03.266Z,8.40
2019-06-20T07:28:29.563Z,8.63
2019-06-20T07:30:56.847Z,8.80
2019-06-20T07:33:26.960Z,8.60
2019-06-20T07:35:59.169Z,9.00
2019-06-20T07:38:27.116Z,8.63
2019-06-20T07:40:53.344Z,8.60
2019-06-20T07:43:23.583Z,8.40
2019-06-20T07:46:01.957Z,8.37
2019-06-20T07:48:19.612Z,8.33
2019-06-20T07:50:48.252Z,7.57
2019-06-20T07:53:14.420Z,8.17
2019-06-20T07:55:43.006Z,6.97
2019-06-20T07:58:11.667Z,7.60
2019-06-20T08:00:37.798Z,6.80
2019-06-20T08:03:03.952Z,7.20
2019-06-20T08:05:30.081Z,7.10
2019-06-20T08:07:56.236Z,6.73
2019-06-20T08:10:27.425Z,5.90
2019-06-20T08:12:54.932Z,5.87
2019-06-20T08:15:23.939Z,6.17
2019-06-20T08:17:51.875Z,5.70
2019-06-20T08:20:19.023Z,5.97
2019-06-20T08:22:47.418Z,5.23
2019-06-20T08:25:15.918Z,4.80
2019-06-20T08:27:51.655Z,5.53
2019-06-20T08:30:22.772Z,5.40
2019-06-20T08:32:49.047Z,5.83
2019-06-20T08:35:18.589Z,5.23
2019-06-20T08:37:46.325Z,4.83
2019-06-20T08:40:15.512Z,4.73
2019-06-20T08:42:44.895Z,4.50
2019-06-20T08:45:14.624Z,4.87
2019-06-20T08:47:41.276Z,5.03
2019-06-20T08:50:09.019Z,4.27
2019-06-20T08:52:35.972Z,4.30
2019-06-20T08:55:08.695Z,3.50
2019-06-20T08:57:34.817Z,4.10
2019-06-20T09:00:00.970Z,4.00
2019-06-20T09:02:27.097Z,3.80
2019-06-20T09:04:55.220Z,3.50
2019-06-20T09:07:23.129Z,3.40
2019-06-20T09:09:50.421Z,3.13
2019-06-20T09:12:16.656Z,2.87
2019-06-20T09:14:42.934Z,3.00
2019-06-20T09:17:09.245Z,2.83
2019-06-20T09:19:35.341Z,3.27
2019-06-20T09:22:04.668Z,2.97
2019-06-20T09:24:31.330Z,2.83
2019-06-20T09:26:57.484Z,3.27
2019-06-20T09:29:38.341Z,3.10
2019-06-20T09:31:55.642Z,3.33
2019-06-20T09:34:23.451Z,2.90
2019-06-20T09:36:51.938Z,3.30
2019-06-20T09:39:18.235Z,3.43
2019-06-20T09:41:44.372Z,3.33
2019-06-20T09:44:10.521Z,3.57
2019-06-20T09:46:36.795Z,3.27
2019-06-20T09:49:03.292Z,4.23
2019-06-20T09:51:29.554Z,3.30
2019-06-20T09:53:56.355Z,3.63
2019-06-20T09:56:22.533Z,3.50
2019-06-20T09:58:49.596Z,3.57
2019-06-20T10:01:16.203Z,4.20
2019-06-20T10:03:42.441Z,3.87
2019-06-20T10:06:13.749Z,3.97
2019-06-20T10:08:36.970Z,4.30
2019-06-20T10:11:03.195Z,4.70
2019-06-20T10:13:32.549Z,4.60
2019-06-20T10:15:57.397Z,4.87
2019-06-20T10:18:23.534Z,4.87
2019-06-20T10:20:51.471Z,5.37
2019-06-20T10:23:17.624Z,4.07
2019-06-20T10:25:46.101Z,4.70
2019-06-20T10:28:11.972Z,4.87
2019-06-20T10:30:38.234Z,4.63
2019-06-20T10:33:04.341Z,4.83
2019-06-20T10:35:30.590Z,5.07
2019-06-20T10:37:57.300Z,4.67
2019-06-20T10:40:24.105Z,4.53
2019-06-20T10:42:50.375Z,4.80
2019-06-20T10:45:18.997Z,5.07
2019-06-20T10:47:47.278Z,4.97
2019-06-20T10:50:17.498Z,4.80
2019-06-20T10:52:43.725Z,4.83
2019-06-20T10:55:10.498Z,5.00
2019-06-20T10:57:36.779Z,4.67
2019-06-20T11:00:09.302Z,4.87
2019-06-20T11:02:35.537Z,3.90
2019-06-20T11:05:04.074Z,5.07
2019-06-20T11:07:30.207Z,4.30
2019-06-20T11:09:57.751Z,4.17
2019-06-20T11:12:24.987Z,4.17
2019-06-20T11:14:52.783Z,3.97
2019-06-20T11:17:20.824Z,4.80
2019-06-20T11:19:48.044Z,4.70
2019-06-20T11:22:15.407Z,3.80
2019-06-20T11:24:43.044Z,3.83
2019-06-20T11:27:09.674Z,4.33
2019-06-20T11:29:37.801Z,4.00
2019-06-20T11:32:03.896Z,4.33
2019-06-20T11:34:31.706Z,4.30
2019-06-20T11:36:57.923Z,4.13
2019-06-20T11:39:24.055Z,3.90
2019-06-20T11:41:51.777Z,3.97
2019-06-20T11:44:19.726Z,3.57
2019-06-20T11:46:47.101Z,3.23
2019-06-20T11:49:13.617Z,3.03
2019-06-20T11:51:39.907Z,3.50
2019-06-20T11:54:06.150Z,3.07
2019-06-20T11:56:32.688Z,3.17
2019-06-20T11:59:00.766Z,2.50
2019-06-20T12:01:32.915Z,2.33
2019-06-20T12:03:57.035Z,2.40
2019-06-20T12:06:24.287Z,2.13
2019-06-20T12:08:52.810Z,2.00
2019-06-20T12:11:20.787Z,1.90
2019-06-20T12:13:49.598Z,1.90
2019-06-20T12:16:16.218Z,1.97
2019-06-20T12:18:43.147Z,1.83
2019-06-20T12:21:12.457Z,1.70
2019-06-20T12:23:40.700Z,1.90
2019-06-20T12:26:09.260Z,1.90
2019-06-20T12:28:35.413Z,1.80
2019-06-20T12:31:01.695Z,1.70
2019-06-20T12:33:27.929Z,1.70
2019-06-20T12:35:54.279Z,1.73
2019-06-20T12:38:20.510Z,1.53
2019-06-20T12:40:46.740Z,1.80
2019-06-20T12:43:12.890Z,1.83
2019-06-20T12:45:40.025Z,1.60
2019-06-20T12:48:07.273Z,1.80
2019-06-20T12:50:35.324Z,1.70
2019-06-20T12:53:01.598Z,1.83
2019-06-20T12:55:27.901Z,1.67
2019-06-20T12:57:54.206Z,1.57
2019-06-20T13:00:21.482Z,2.00
2019-06-20T13:02:47.834Z,1.50
2019-06-20T13:05:21.158Z,1.73
2019-06-20T13:07:50.439Z,1.63
2019-06-20T13:10:17.852Z,1.60
2019-06-20T13:12:46.353Z,1.77
2019-06-20T13:15:14.482Z,1.60
2019-06-20T13:17:47.013Z,1.93
2019-06-20T13:20:14.160Z,2.13
2019-06-20T13:22:44.825Z,1.93
2019-06-20T13:25:14.185Z,2.20
2019-06-20T13:27:41.054Z,31.77
2019-06-20T13:30:09.618Z,3.30
2019-06-20T13:32:42.047Z,3.10
2019-06-20T13:35:11.449Z,2.73
2019-06-20T13:37:38.220Z,2.70
2019-06-20T13:40:13.562Z,2.80
2019-06-20T13:42:41.953Z,2.33
2019-06-20T13:45:27.505Z,2.80
2019-06-20T13:47:54.248Z,2.80
2019-06-20T13:50:23.043Z,2.60
2019-06-20T13:52:51.158Z,2.80
2019-06-20T13:55:18.023Z,2.77
2019-06-20T13:57:45.235Z,2.75
2019-06-20T14:00:15.007Z,3.20
2019-06-20T14:02:43.298Z,3.70
2019-06-20T14:05:10.448Z,3.10
2019-06-20T14:07:43.585Z,3.40
2019-06-20T14:10:08.786Z,3.20
2019-06-20T14:12:36.854Z,3.10
2019-06-20T14:15:05.184Z,3.27
2019-06-20T14:17:31.852Z,2.90
2019-06-20T14:20:00.374Z,2.90
2019-06-20T14:22:32.826Z,3.10
2019-06-20T14:24:59.390Z,2.77
2019-06-20T14:27:28.900Z,3.00
2019-06-20T14:29:58.487Z,2.67
2019-06-20T14:32:24.783Z,2.70
2019-06-20T14:34:52.649Z,3.08
2019-06-20T14:37:20.164Z,2.83
2019-06-20T14:39:46.868Z,3.10
2019-06-20T14:42:15.554Z,2.97
2019-06-20T14:44:44.098Z,2.60
2019-06-20T14:47:11.992Z,2.58
2019-06-20T14:49:38.239Z,3.12
2019-06-20T14:52:04.697Z,2.90
2019-06-20T14:54:31.871Z,3.30
2019-06-20T14:56:58.415Z,2.80
2019-06-20T14:59:27.971Z,2.87
2019-06-20T15:01:55.501Z,2.97
2019-06-20T15:04:24.391Z,3.10
2019-06-20T15:06:50.643Z,3.60
2019-06-20T15:09:16.776Z,3.07
2019-06-20T15:11:45.834Z,3.53
2019-06-20T15:14:11.275Z,2.90
2019-06-20T15:16:37.404Z,3.10
2019-06-20T15:19:03.656Z,2.93
2019-06-20T15:21:29.788Z,2.90
2019-06-20T15:23:56.670Z,3.23
2019-06-20T15:26:22.966Z,3.30
2019-06-20T15:28:49.770Z,3.27
2019-06-20T15:31:17.348Z,3.00
2019-06-20T15:33:43.727Z,2.83
2019-06-20T15:36:10.040Z,3.10
2019-06-20T15:38:36.287Z,2.93
2019-06-20T15:41:04.345Z,3.07
2019-06-20T15:43:30.567Z,3.27
2019-06-20T15:45:58.385Z,2.93
2019-06-20T15:48:24.649Z,3.10
2019-06-20T15:50:50.820Z,3.03
2019-06-20T15:53:17.021Z,2.90
2019-06-20T15:55:44.836Z,3.07
2019-06-20T15:58:10.974Z,3.10
2019-06-20T16:00:37.210Z,3.10
2019-06-20T16:03:10.006Z,2.93
2019-06-20T16:05:31.744Z,2.60
2019-06-20T16:07:57.975Z,2.50
2019-06-20T16:10:24.242Z,2.90
2019-06-20T16:12:50.493Z,2.90
2019-06-20T16:15:21.613Z,2.80
2019-06-20T16:17:50.591Z,2.60
2019-06-20T16:20:17.079Z,2.97
2019-06-20T16:22:43.336Z,3.17
2019-06-20T16:25:10.344Z,3.37
2019-06-20T16:27:37.043Z,2.87
2019-06-20T16:30:07.222Z,3.10
2019-06-20T16:32:33.467Z,2.90
2019-06-20T16:34:59.700Z,2.87
2019-06-20T16:37:25.938Z,3.00
2019-06-20T16:39:52.178Z,3.50
2019-06-20T16:42:19.004Z,3.17
2019-06-20T16:44:45.153Z,3.70
2019-06-20T16:47:11.434Z,2.93
2019-06-20T16:49:37.657Z,2.97
2019-06-20T16:52:05.313Z,2.77
2019-06-20T16:54:31.535Z,2.70
2019-06-20T16:56:57.769Z,2.80
2019-06-20T16:59:24.019Z,2.73
2019-06-20T17:01:51.125Z,3.00
2019-06-20T17:04:17.251Z,3.20
2019-06-20T17:06:43.506Z,2.77
2019-06-20T17:09:10.054Z,2.83
2019-06-20T17:11:36.240Z,2.63
2019-06-20T17:14:02.472Z,3.10
2019-06-20T17:16:28.700Z,2.90
2019-06-20T17:18:54.947Z,2.63
2019-06-20T17:21:21.121Z,2.40
2019-06-20T17:23:47.390Z,2.50
2019-06-20T17:26:13.688Z,2.70
2019-06-20T17:28:39.928Z,2.70
2019-06-20T17:31:06.072Z,2.60
2019-06-20T17:33:32.320Z,2.50
2019-06-20T17:35:58.556Z,2.73
2019-06-20T17:38:24.879Z,2.43
2019-06-20T17:40:51.134Z,2.60
2019-06-20T17:43:19.204Z,2.50
2019-06-20T17:45:45.467Z,2.10
2019-06-20T17:48:11.906Z,2.27
2019-06-20T17:50:38.092Z,2.63
2019-06-20T17:53:06.033Z,2.37
2019-06-20T17:55:36.267Z,2.23
2019-06-20T17:58:03.764Z,2.73
2019-06-20T18:00:30.421Z,2.53
2019-06-20T18:02:56.705Z,2.50
2019-06-20T18:05:24.201Z,2.60
2019-06-20T18:07:50.470Z,2.63
2019-06-20T18:10:19.907Z,2.23
2019-06-20T18:12:46.092Z,2.30
2019-06-20T18:15:13.144Z,2.40
2019-06-20T18:17:39.764Z,2.77
2019-06-20T18:20:07.216Z,2.60
2019-06-20T18:22:33.444Z,2.43
2019-06-20T18:24:59.593Z,2.60
2019-06-20T18:27:25.854Z,2.70
2019-06-20T18:29:52.123Z,2.70
2019-06-20T18:32:18.481Z,2.60
2019-06-20T18:35:00.557Z,3.07
2019-06-20T18:37:12.873Z,2.30
2019-06-20T18:39:43.888Z,2.93
2019-06-20T18:42:10.373Z,2.87
2019-06-20T18:44:36.622Z,3.20
2019-06-20T18:47:03.029Z,2.70
2019-06-20T18:49:30.345Z,2.70
2019-06-20T18:51:56.586Z,3.00
2019-06-20T18:54:24.116Z,3.30
2019-06-20T18:56:50.259Z,3.03
2019-06-20T18:59:16.515Z,3.30
2019-06-20T19:01:44.212Z,2.80
2019-06-20T19:04:13.293Z,2.90
2019-06-20T19:06:39.608Z,3.13
2019-06-20T19:09:07.843Z,3.03
2019-06-20T19:11:34.083Z,3.00
2019-06-20T19:14:00.701Z,3.13
2019-06-20T19:16:27.034Z,3.50
2019-06-20T19:18:53.312Z,3.67
2019-06-20T19:21:19.686Z,3.47
2019-06-20T19:23:45.903Z,3.07
2019-06-20T19:26:13.010Z,3.40
2019-06-20T19:28:39.233Z,3.40
2019-06-20T19:31:05.493Z,4.13
2019-06-20T19:33:31.731Z,3.63
2019-06-20T19:35:58.165Z,3.63
2019-06-20T19:38:24.311Z,4.33
2019-06-20T19:40:50.850Z,3.93
2019-06-20T19:43:17.114Z,3.97
2019-06-20T19:45:45.422Z,3.90
2019-06-20T19:48:12.853Z,3.43
2019-06-20T19:50:39.508Z,4.20
2019-06-20T19:53:07.405Z,3.80
2019-06-20T19:55:34.514Z,4.13
2019-06-20T19:58:03.973Z,4.30
2019-06-20T20:00:30.226Z,4.73
2019-06-20T20:02:56.577Z,4.33
2019-06-20T20:05:22.810Z,4.83
2019-06-20T20:07:49.168Z,5.13
2019-06-20T20:10:19.231Z,5.40
2019-06-20T20:12:45.568Z,5.50
2019-06-20T20:15:12.468Z,5.40
2019-06-20T20:17:38.698Z,5.00
2019-06-20T20:20:06.240Z,4.93
2019-06-20T20:22:33.293Z,4.57
2019-06-20T20:25:06.045Z,4.37
2019-06-20T20:27:32.480Z,4.93
2019-06-20T20:29:59.084Z,4.97
2019-06-20T20:32:25.277Z,5.70
2019-06-20T20:34:51.429Z,4.97
2019-06-20T20:37:17.937Z,5.37
2019-06-20T20:39:44.191Z,4.87
2019-06-20T20:42:10.587Z,6.23
2019-06-20T20:44:37.131Z,5.60
2019-06-20T20:47:03.370Z,5.53
2019-06-20T20:49:29.629Z,5.27
2019-06-20T20:51:55.875Z,6.17
2019-06-20T20:54:22.026Z,7.07
2019-06-20T20:56:48.243Z,6.53
2019-06-20T20:59:14.438Z,6.37
2019-06-20T21:01:40.668Z,7.10
2019-06-20T21:04:06.909Z,6.50
2019-06-20T21:06:36.208Z,6.57
2019-06-20T21:09:03.689Z,7.33
2019-06-20T21:11:29.817Z,7.20
2019-06-20T21:13:56.072Z,6.40
2019-06-20T21:16:22.282Z,7.30
2019-06-20T21:18:48.558Z,7.50
2019-06-20T21:21:14.835Z,7.70
2019-06-20T21:23:40.948Z,6.97
2019-06-20T21:26:07.126Z,6.37
2019-06-20T21:28:33.352Z,7.50
2019-06-20T21:30:59.618Z,6.57
2019-06-20T21:33:25.856Z,6.83
2019-06-20T21:36:07.298Z,6.83
2019-06-20T21:38:20.544Z,7.23
2019-06-20T21:40:46.673Z,6.63
2019-06-20T21:43:12.814Z,7.50
2019-06-20T21:45:39.055Z,6.63
2019-06-20T21:48:05.350Z,8.03
2019-06-20T21:50:31.518Z,7.07
2019-06-20T21:52:57.767Z,8.40
2019-06-20T21:55:24.012Z,8.50
2019-06-20T21:57:50.157Z,6.63
2019-06-20T22:00:32.808Z,7.60
2019-06-20T22:02:59.167Z,7.87
2019-06-20T22:05:25.433Z,7.53
2019-06-20T22:07:52.982Z,8.33
2019-06-20T22:10:19.423Z,7.00
2019-06-20T22:12:45.686Z,6.73
2019-06-20T22:15:12.213Z,6.97
2019-06-20T22:17:38.764Z,7.20
2019-06-20T22:20:07.605Z,6.27
2019-06-20T22:22:34.183Z,6.80
2019-06-20T22:25:00.733Z,8.37
2019-06-20T22:27:27.325Z,8.87
2019-06-20T22:29:53.540Z,7.77
2019-06-20T22:32:20.958Z,7.90
2019-06-20T22:34:47.187Z,8.10
2019-06-20T22:37:15.582Z,7.40
2019-06-20T22:39:41.846Z,8.63
2019-06-20T22:42:07.979Z,8.50
2019-06-20T22:44:35.858Z,8.67
2019-06-20T22:47:03.914Z,8.13
2019-06-20T22:49:30.161Z,7.20
2019-06-20T22:51:56.383Z,7.73
2019-06-20T22:54:22.523Z,7.83
2019-06-20T22:56:50.359Z,7.40
2019-06-20T22:59:16.578Z,6.77
2019-06-20T23:01:42.817Z,7.40
2019-06-20T23:04:08.949Z,6.30
2019-06-20T23:06:36.174Z,7.10
2019-06-20T23:09:03.992Z,6.67
2019-06-20T23:11:30.615Z,7.53
2019-06-20T23:13:56.900Z,7.40
2019-06-20T23:16:24.406Z,8.57
2019-06-20T23:18:50.648Z,7.83
2019-06-20T23:21:16.871Z,8.10
2019-06-20T23:23:43.118Z,9.37
2019-06-20T23:26:12.070Z,9.83
2019-06-20T23:28:38.242Z,8.20
2019-06-20T23:31:05.669Z,7.57
2019-06-20T23:33:33.937Z,8.07
2019-06-20T23:36:00.737Z,8.07
2019-06-20T23:38:26.857Z,7.57
2019-06-20T23:40:54.900Z,8.73
2019-06-20T23:43:21.036Z,7.17
2019-06-20T23:45:47.264Z,9.13
2019-06-20T23:48:13.504Z,8.00
2019-06-20T23:50:39.732Z,9.47
2019-06-20T23:53:10.554Z,9.17
2019-06-20T23:55:36.812Z,9.63
2019-06-20T23:58:03.154Z,9.03
